sensor_id;sensor_type;location;lat;lon;timestamp;P1;durP1;ratioP1;P2;durP2;ratioP2
990;SDS011;484;48.128;11.602;2022-08-01T19:16:25;2.47;;;2.00;;
990;SDS011;484;48.128;11.602;2022-08-01T19:19:11;2.47;;;1.80;;
990;SDS011;484;48.128;11.602;2022-08-01T19:21:56;1.83;;;1.73;;
990;SDS011;484;48.128;11.602;2022-08-01T19:24:42;2.13;;;1.63;;
990;SDS011;484;48.128;11.602;2022-08-01T19:27:27;2.10;;;1.90;;
990;SDS011;484;48.128;11.602;2022-08-01T19:30:15;2.60;;;2.40;;
990;SDS011;484;48.128;11.602;2022-08-01T19:33:03;2.73;;;2.50;;
990;SDS011;484;48.128;11.602;2022-08-01T19:35:50;3.13;;;2.83;;
990;SDS011;484;48.128;11.602;2022-08-01T19:38:37;4.20;;;3.60;;
990;SDS011;484;48.128;11.602;2022-08-01T19:41:23;2.60;;;2.40;;
990;SDS011;484;48.128;11.602;2022-08-01T19:44:13;3.13;;;2.37;;
990;SDS011;484;48.128;11.602;2022-08-01T19:47:00;2.37;;;2.27;;
990;SDS011;484;48.128;11.602;2022-08-01T19:49:50;2.47;;;2.27;;
990;SDS011;484;48.128;11.602;2022-08-01T19:52:36;2.73;;;2.50;;
990;SDS011;484;48.128;11.602;2022-08-01T19:55:22;1.63;;;1.53;;
990;SDS011;484;48.128;11.602;2022-08-01T19:58:09;4.30;;;2.27;;
990;SDS011;484;48.128;11.602;2022-08-01T20:00:56;2.07;;;1.97;;
990;SDS011;484;48.128;11.602;2022-08-01T20:03:41;2.17;;;2.03;;
990;SDS011;484;48.128;11.602;2022-08-01T20:06:29;1.77;;;1.67;;
990;SDS011;484;48.128;11.602;2022-08-01T20:09:15;2.53;;;2.20;;
990;SDS011;484;48.128;11.602;2022-08-01T20:12:01;1.93;;;1.83;;
990;SDS011;484;48.128;11.602;2022-08-01T20:14:49;2.50;;;2.30;;
990;SDS011;484;48.128;11.602;2022-08-01T20:17:36;2.00;;;1.80;;
990;SDS011;484;48.128;11.602;2022-08-01T20:20:22;4.00;;;2.33;;
990;SDS011;484;48.128;11.602;2022-08-01T20:23:10;2.33;;;2.13;;
990;SDS011;484;48.128;11.602;2022-08-01T20:25:58;1.83;;;1.73;;
990;SDS011;484;48.128;11.602;2022-08-01T20:28:45;2.00;;;1.90;;
990;SDS011;484;48.128;11.602;2022-08-01T20:31:31;3.07;;;2.60;;
990;SDS011;484;48.128;11.602;2022-08-01T20:34:22;2.23;;;2.03;;
990;SDS011;484;48.128;11.602;2022-08-01T20:37:09;2.83;;;2.63;;
990;SDS011;484;48.128;11.602;2022-08-01T20:39:56;4.20;;;2.70;;
990;SDS011;484;48.128;11.602;2022-08-01T20:42:42;2.87;;;2.57;;
990;SDS011;484;48.128;11.602;2022-08-01T20:45:28;1.93;;;1.83;;
990;SDS011;484;48.128;11.602;2022-08-01T20:48:14;2.93;;;2.73;;
990;SDS011;484;48.128;11.602;2022-08-01T20:51:01;2.93;;;2.73;;
990;SDS011;484;48.128;11.602;2022-08-01T20:54:00;2.70;;;2.50;;
990;SDS011;484;48.128;11.602;2022-08-01T20:57:02;2.97;;;2.20;;
990;SDS011;484;48.128;11.602;2022-08-01T21:00:02;2.47;;;2.27;;
990;SDS011;484;48.128;11.602;2022-08-01T21:02:57;2.67;;;2.47;;
990;SDS011;484;48.128;11.602;2022-08-01T21:05:46;2.63;;;2.43;;
990;SDS011;484;48.128;11.602;2022-08-01T21:08:40;2.63;;;2.27;;
990;SDS011;484;48.128;11.602;2022-08-01T21:11:27;2.33;;;2.23;;
990;SDS011;484;48.128;11.602;2022-08-01T21:14:19;2.80;;;2.60;;
990;SDS011;484;48.128;11.602;2022-08-01T21:17:06;2.97;;;2.77;;
990;SDS011;484;48.128;11.602;2022-08-01T21:19:59;2.30;;;2.10;;
990;SDS011;484;48.128;11.602;2022-08-01T21:22:50;1.87;;;1.77;;
990;SDS011;484;48.128;11.602;2022-08-01T21:25:40;1.63;;;1.53;;
990;SDS011;484;48.128;11.602;2022-08-01T21:28:27;2.43;;;2.23;;
990;SDS011;484;48.128;11.602;2022-08-01T21:31:14;3.33;;;2.07;;
990;SDS011;484;48.128;11.602;2022-08-01T21:34:00;2.13;;;1.97;;
990;SDS011;484;48.128;11.602;2022-08-01T21:36:48;1.90;;;1.80;;
990;SDS011;484;48.128;11.602;2022-08-01T21:39:35;2.30;;;2.10;;
990;SDS011;484;48.128;11.602;2022-08-01T21:42:21;1.97;;;1.73;;
990;SDS011;484;48.128;11.602;2022-08-01T21:45:10;3.90;;;1.87;;
990;SDS011;484;48.128;11.602;2022-08-01T21:48:03;2.07;;;1.87;;
990;SDS011;484;48.128;11.602;2022-08-01T21:50:51;2.07;;;1.97;;
990;SDS011;484;48.128;11.602;2022-08-01T21:53:39;3.07;;;2.77;;
990;SDS011;484;48.128;11.602;2022-08-01T21:56:35;1.90;;;1.80;;
990;SDS011;484;48.128;11.602;2022-08-01T21:59:29;2.27;;;1.97;;
990;SDS011;484;48.128;11.602;2022-08-01T22:02:20;1.50;;;1.40;;
990;SDS011;484;48.128;11.602;2022-08-01T22:05:14;2.37;;;2.17;;
990;SDS011;484;48.128;11.602;2022-08-01T22:08:01;1.50;;;1.40;;
990;SDS011;484;48.128;11.602;2022-08-01T22:10:47;1.70;;;1.60;;
990;SDS011;484;48.128;11.602;2022-08-01T22:13:38;2.80;;;2.27;;
990;SDS011;484;48.128;11.602;2022-08-01T22:16:24;2.60;;;1.20;;
990;SDS011;484;48.128;11.602;2022-08-01T22:19:11;1.30;;;1.20;;
990;SDS011;484;48.128;11.602;2022-08-01T22:21:58;1.47;;;1.37;;
990;SDS011;484;48.128;11.602;2022-08-01T22:24:45;1.30;;;1.20;;
990;SDS011;484;48.128;11.602;2022-08-01T22:27:30;1.00;;;1.00;;
990;SDS011;484;48.128;11.602;2022-08-01T22:30:16;1.87;;;1.10;;
990;SDS011;484;48.128;11.602;2022-08-01T22:33:02;1.83;;;1.40;;
990;SDS011;484;48.128;11.602;2022-08-01T22:35:48;1.20;;;1.07;;
990;SDS011;484;48.128;11.602;2022-08-01T22:38:36;1.10;;;1.00;;
990;SDS011;484;48.128;11.602;2022-08-01T22:41:23;1.47;;;1.20;;
990;SDS011;484;48.128;11.602;2022-08-01T22:44:11;1.40;;;1.30;;
990;SDS011;484;48.128;11.602;2022-08-01T22:46:59;1.87;;;1.40;;
990;SDS011;484;48.128;11.602;2022-08-01T22:49:50;1.37;;;1.27;;
990;SDS011;484;48.128;11.602;2022-08-01T22:52:41;1.23;;;1.13;;
990;SDS011;484;48.128;11.602;2022-08-01T22:55:33;2.67;;;1.30;;
990;SDS011;484;48.128;11.602;2022-08-01T22:58:21;1.00;;;1.00;;
990;SDS011;484;48.128;11.602;2022-08-01T23:01:09;1.90;;;1.80;;
990;SDS011;484;48.128;11.602;2022-08-01T23:03:57;1.10;;;1.00;;
990;SDS011;484;48.128;11.602;2022-08-01T23:06:44;1.77;;;1.67;;
990;SDS011;484;48.128;11.602;2022-08-01T23:09:31;1.70;;;1.60;;
990;SDS011;484;48.128;11.602;2022-08-01T23:12:19;1.33;;;1.23;;
990;SDS011;484;48.128;11.602;2022-08-01T23:15:08;1.77;;;1.67;;
990;SDS011;484;48.128;11.602;2022-08-01T23:17:55;1.23;;;0.97;;
990;SDS011;484;48.128;11.602;2022-08-01T23:20:41;1.30;;;1.20;;
990;SDS011;484;48.128;11.602;2022-08-01T23:23:28;0.80;;;0.80;;
990;SDS011;484;48.128;11.602;2022-08-01T23:26:15;1.10;;;1.00;;
990;SDS011;484;48.128;11.602;2022-08-01T23:29:02;1.20;;;1.10;;
990;SDS011;484;48.128;11.602;2022-08-01T23:32:02;1.00;;;0.90;;
990;SDS011;484;48.128;11.602;2022-08-01T23:34:48;1.33;;;1.23;;
990;SDS011;484;48.128;11.602;2022-08-01T23:37:33;1.00;;;1.00;;
990;SDS011;484;48.128;11.602;2022-08-01T23:40:19;1.43;;;1.33;;
990;SDS011;484;48.128;11.602;2022-08-01T23:43:06;0.83;;;0.83;;
990;SDS011;484;48.128;11.602;2022-08-01T23:45:53;1.37;;;1.27;;
990;SDS011;484;48.128;11.602;2022-08-01T23:48:39;1.20;;;1.10;;
990;SDS011;484;48.128;11.602;2022-08-01T23:51:24;1.10;;;1.10;;
990;SDS011;484;48.128;11.602;2022-08-01T23:54:09;1.37;;;1.10;;
990;SDS011;484;48.128;11.602;2022-08-01T23:56:55;1.50;;;1.40;;
990;SDS011;484;48.128;11.602;2022-08-01T23:59:41;6.03;;;1.60;;
